sensor_id;sensor_type;location;lat;lon;timestamp;P1;durP1;ratioP1;P2;durP2;ratioP2
28934;SDS011;16044;52.726;-2.108;2022-07-29T00:01:00;6.25;;;1.60;;
28934;SDS011;16044;52.726;-2.108;2022-07-29T00:03:27;6.25;;;1.42;;
28934;SDS011;16044;52.726;-2.108;2022-07-29T00:05:54;5.60;;;1.40;;
28934;SDS011;16044;52.726;-2.108;2022-07-29T00:08:21;3.90;;;1.23;;
28934;SDS011;16044;52.726;-2.108;2022-07-29T00:10:49;6.13;;;1.50;;
28934;SDS011;16044;52.726;-2.108;2022-07-29T00:13:16;5.47;;;1.38;;
28934;SDS011;16044;52.726;-2.108;2022-07-29T00:15:57;5.63;;;1.42;;
28934;SDS011;16044;52.726;-2.108;2022-07-29T00:18:30;4.85;;;1.35;;
28934;SDS011;16044;52.726;-2.108;2022-07-29T00:20:58;6.30;;;1.67;;
28934;SDS011;16044;52.726;-2.108;2022-07-29T00:23:25;8.23;;;1.40;;
28934;SDS011;16044;52.726;-2.108;2022-07-29T00:25:52;7.47;;;1.23;;
28934;SDS011;16044;52.726;-2.108;2022-07-29T00:28:19;5.65;;;1.42;;
28934;SDS011;16044;52.726;-2.108;2022-07-29T00:30:46;5.72;;;1.20;;
28934;SDS011;16044;52.726;-2.108;2022-07-29T00:33:13;5.22;;;1.35;;
28934;SDS011;16044;52.726;-2.108;2022-07-29T00:35:40;8.00;;;1.42;;
28934;SDS011;16044;52.726;-2.108;2022-07-29T00:38:13;8.80;;;1.60;;
28934;SDS011;16044;52.726;-2.108;2022-07-29T00:40:43;4.55;;;1.20;;
28934;SDS011;16044;52.726;-2.108;2022-07-29T00:43:11;7.88;;;1.63;;
28934;SDS011;16044;52.726;-2.108;2022-07-29T00:45:42;7.38;;;1.30;;
28934;SDS011;16044;52.726;-2.108;2022-07-29T00:48:10;7.47;;;1.60;;
28934;SDS011;16044;52.726;-2.108;2022-07-29T00:50:37;6.03;;;1.38;;
28934;SDS011;16044;52.726;-2.108;2022-07-29T00:53:05;5.72;;;1.50;;
28934;SDS011;16044;52.726;-2.108;2022-07-29T00:55:33;9.30;;;1.35;;
28934;SDS011;16044;52.726;-2.108;2022-07-29T00:58:01;10.77;;;1.75;;
28934;SDS011;16044;52.726;-2.108;2022-07-29T01:00:28;8.32;;;1.25;;
28934;SDS011;16044;52.726;-2.108;2022-07-29T01:02:56;11.07;;;1.50;;
28934;SDS011;16044;52.726;-2.108;2022-07-29T01:05:24;5.55;;;1.27;;
28934;SDS011;16044;52.726;-2.108;2022-07-29T01:08:14;8.25;;;1.63;;
28934;SDS011;16044;52.726;-2.108;2022-07-29T01:10:42;6.78;;;1.75;;
28934;SDS011;16044;52.726;-2.108;2022-07-29T01:13:12;7.78;;;1.50;;
28934;SDS011;16044;52.726;-2.108;2022-07-29T01:15:43;5.47;;;1.33;;
28934;SDS011;16044;52.726;-2.108;2022-07-29T01:18:24;6.65;;;1.60;;
28934;SDS011;16044;52.726;-2.108;2022-07-29T01:30:07;7.13;;;1.30;;
28934;SDS011;16044;52.726;-2.108;2022-07-29T01:32:37;8.77;;;1.30;;
28934;SDS011;16044;52.726;-2.108;2022-07-29T01:35:14;6.40;;;1.40;;
28934;SDS011;16044;52.726;-2.108;2022-07-29T01:38:05;10.23;;;1.40;;
28934;SDS011;16044;52.726;-2.108;2022-07-29T01:40:47;5.82;;;1.23;;
28934;SDS011;16044;52.726;-2.108;2022-07-29T01:43:44;7.28;;;1.40;;
28934;SDS011;16044;52.726;-2.108;2022-07-29T01:46:24;8.38;;;1.20;;
28934;SDS011;16044;52.726;-2.108;2022-07-29T01:49:10;7.80;;;1.52;;
28934;SDS011;16044;52.726;-2.108;2022-07-29T01:51:46;5.32;;;1.42;;
28934;SDS011;16044;52.726;-2.108;2022-07-29T01:57:26;8.15;;;1.30;;
28934;SDS011;16044;52.726;-2.108;2022-07-29T01:59:56;3.88;;;1.20;;
28934;SDS011;16044;52.726;-2.108;2022-07-29T02:02:26;10.10;;;1.48;;
28934;SDS011;16044;52.726;-2.108;2022-07-29T02:04:54;9.23;;;1.40;;
28934;SDS011;16044;52.726;-2.108;2022-07-29T02:07:24;4.80;;;1.10;;
28934;SDS011;16044;52.726;-2.108;2022-07-29T02:09:55;9.35;;;1.30;;
28934;SDS011;16044;52.726;-2.108;2022-07-29T02:12:24;4.88;;;1.20;;
28934;SDS011;16044;52.726;-2.108;2022-07-29T02:14:53;11.82;;;1.40;;
28934;SDS011;16044;52.726;-2.108;2022-07-29T02:17:45;5.20;;;1.20;;
28934;SDS011;16044;52.726;-2.108;2022-07-29T02:20:23;8.82;;;1.48;;
28934;SDS011;16044;52.726;-2.108;2022-07-29T02:22:53;8.43;;;1.20;;
28934;SDS011;16044;52.726;-2.108;2022-07-29T02:25:22;7.07;;;1.40;;
28934;SDS011;16044;52.726;-2.108;2022-07-29T02:28:02;7.20;;;1.30;;
28934;SDS011;16044;52.726;-2.108;2022-07-29T02:30:31;7.57;;;1.20;;
28934;SDS011;16044;52.726;-2.108;2022-07-29T02:33:02;7.80;;;1.48;;
28934;SDS011;16044;52.726;-2.108;2022-07-29T02:35:31;5.38;;;1.42;;
28934;SDS011;16044;52.726;-2.108;2022-07-29T02:38:00;4.68;;;1.30;;
28934;SDS011;16044;52.726;-2.108;2022-07-29T02:40:47;7.40;;;1.30;;
28934;SDS011;16044;52.726;-2.108;2022-07-29T02:43:16;5.28;;;1.48;;
28934;SDS011;16044;52.726;-2.108;2022-07-29T02:45:45;4.55;;;1.50;;
28934;SDS011;16044;52.726;-2.108;2022-07-29T02:48:18;7.13;;;1.20;;
28934;SDS011;16044;52.726;-2.108;2022-07-29T02:50:50;6.00;;;1.42;;
28934;SDS011;16044;52.726;-2.108;2022-07-29T02:53:28;9.18;;;1.75;;
28934;SDS011;16044;52.726;-2.108;2022-07-29T02:56:00;5.68;;;1.35;;
28934;SDS011;16044;52.726;-2.108;2022-07-29T02:58:36;6.82;;;1.55;;
28934;SDS011;16044;52.726;-2.108;2022-07-29T03:01:16;5.25;;;1.60;;
28934;SDS011;16044;52.726;-2.108;2022-07-29T03:03:49;5.13;;;1.65;;
28934;SDS011;16044;52.726;-2.108;2022-07-29T03:06:20;4.30;;;1.50;;
28934;SDS011;16044;52.726;-2.108;2022-07-29T03:09:03;9.18;;;1.98;;
28934;SDS011;16044;52.726;-2.108;2022-07-29T03:11:38;3.90;;;1.20;;
28934;SDS011;16044;52.726;-2.108;2022-07-29T03:14:15;6.03;;;1.60;;
28934;SDS011;16044;52.726;-2.108;2022-07-29T03:16:45;5.05;;;1.80;;
28934;SDS011;16044;52.726;-2.108;2022-07-29T03:19:13;7.88;;;1.67;;
28934;SDS011;16044;52.726;-2.108;2022-07-29T03:21:40;5.35;;;1.55;;
28934;SDS011;16044;52.726;-2.108;2022-07-29T03:24:07;7.18;;;1.40;;
28934;SDS011;16044;52.726;-2.108;2022-07-29T03:26:36;6.45;;;1.73;;
28934;SDS011;16044;52.726;-2.108;2022-07-29T03:29:03;6.25;;;1.50;;
28934;SDS011;16044;52.726;-2.108;2022-07-29T03:31:30;4.68;;;1.40;;
28934;SDS011;16044;52.726;-2.108;2022-07-29T03:33:58;9.77;;;1.52;;
28934;SDS011;16044;52.726;-2.108;2022-07-29T03:36:26;5.70;;;1.70;;
28934;SDS011;16044;52.726;-2.108;2022-07-29T03:38:53;4.53;;;1.60;;
28934;SDS011;16044;52.726;-2.108;2022-07-29T03:41:20;8.13;;;1.67;;
28934;SDS011;16044;52.726;-2.108;2022-07-29T03:43:50;4.43;;;1.38;;
28934;SDS011;16044;52.726;-2.108;2022-07-29T03:46:18;6.43;;;1.35;;
28934;SDS011;16044;52.726;-2.108;2022-07-29T03:48:50;11.70;;;1.73;;
28934;SDS011;16044;52.726;-2.108;2022-07-29T03:51:22;6.95;;;1.25;;
28934;SDS011;16044;52.726;-2.108;2022-07-29T03:53:59;7.35;;;1.50;;
28934;SDS011;16044;52.726;-2.108;2022-07-29T03:56:40;5.22;;;1.60;;
28934;SDS011;16044;52.726;-2.108;2022-07-29T03:59:13;6.82;;;1.55;;
28934;SDS011;16044;52.726;-2.108;2022-07-29T04:01:41;6.70;;;1.45;;
28934;SDS011;16044;52.726;-2.108;2022-07-29T04:04:09;7.82;;;1.42;;
28934;SDS011;16044;52.726;-2.108;2022-07-29T04:06:38;5.63;;;1.80;;
28934;SDS011;16044;52.726;-2.108;2022-07-29T04:09:11;6.38;;;1.48;;
28934;SDS011;16044;52.726;-2.108;2022-07-29T04:11:39;7.18;;;1.60;;
28934;SDS011;16044;52.726;-2.108;2022-07-29T04:14:27;7.15;;;1.90;;
28934;SDS011;16044;52.726;-2.108;2022-07-29T04:16:54;6.38;;;1.67;;
28934;SDS011;16044;52.726;-2.108;2022-07-29T04:19:21;8.10;;;1.55;;
28934;SDS011;16044;52.726;-2.108;2022-07-29T04:21:48;4.72;;;1.30;;
28934;SDS011;16044;52.726;-2.108;2022-07-29T04:24:15;8.18;;;1.40;;
28934;SDS011;16044;52.726;-2.108;2022-07-29T04:26:45;6.15;;;1.60;;
28934;SDS011;16044;52.726;-2.108;2022-07-29T04:29:12;4.10;;;1.33;;
28934;SDS011;16044;52.726;-2.108;2022-07-29T04:31:41;4.93;;;1.33;;
28934;SDS011;16044;52.726;-2.108;2022-07-29T04:34:08;5.28;;;1.38;;
28934;SDS011;16044;52.726;-2.108;2022-07-29T04:36:36;8.35;;;1.65;;
28934;SDS011;16044;52.726;-2.108;2022-07-29T04:39:03;6.07;;;1.52;;
28934;SDS011;16044;52.726;-2.108;2022-07-29T04:41:30;4.57;;;1.30;;
28934;SDS011;16044;52.726;-2.108;2022-07-29T04:43:58;7.93;;;1.42;;
28934;SDS011;16044;52.726;-2.108;2022-07-29T04:46:27;6.10;;;1.40;;
28934;SDS011;16044;52.726;-2.108;2022-07-29T04:48:54;8.95;;;1.50;;
28934;SDS011;16044;52.726;-2.108;2022-07-29T04:51:21;6.65;;;1.50;;
28934;SDS011;16044;52.726;-2.108;2022-07-29T04:53:48;6.85;;;1.30;;
28934;SDS011;16044;52.726;-2.108;2022-07-29T04:56:15;4.72;;;1.25;;
28934;SDS011;16044;52.726;-2.108;2022-07-29T04:58:42;6.57;;;1.50;;
28934;SDS011;16044;52.726;-2.108;2022-07-29T05:01:09;7.82;;;1.25;;
28934;SDS011;16044;52.726;-2.108;2022-07-29T05:03:36;4.68;;;1.60;;
28934;SDS011;16044;52.726;-2.108;2022-07-29T05:06:03;5.47;;;1.23;;
28934;SDS011;16044;52.726;-2.108;2022-07-29T05:08:29;7.63;;;1.45;;
28934;SDS011;16044;52.726;-2.108;2022-07-29T05:10:56;6.55;;;1.25;;
28934;SDS011;16044;52.726;-2.108;2022-07-29T05:13:37;7.95;;;1.40;;
28934;SDS011;16044;52.726;-2.108;2022-07-29T05:18:40;6.43;;;1.15;;
28934;SDS011;16044;52.726;-2.108;2022-07-29T05:21:08;6.15;;;1.70;;
28934;SDS011;16044;52.726;-2.108;2022-07-29T05:23:34;4.13;;;1.23;;
28934;SDS011;16044;52.726;-2.108;2022-07-29T05:26:01;9.18;;;1.73;;
28934;SDS011;16044;52.726;-2.108;2022-07-29T05:28:29;7.97;;;1.30;;
28934;SDS011;16044;52.726;-2.108;2022-07-29T05:31:01;4.10;;;1.27;;
28934;SDS011;16044;52.726;-2.108;2022-07-29T05:33:28;6.38;;;1.45;;
28934;SDS011;16044;52.726;-2.108;2022-07-29T05:36:02;6.93;;;1.60;;
28934;SDS011;16044;52.726;-2.108;2022-07-29T05:38:34;7.38;;;1.70;;
28934;SDS011;16044;52.726;-2.108;2022-07-29T05:41:02;5.47;;;1.25;;
28934;SDS011;16044;52.726;-2.108;2022-07-29T05:43:29;5.68;;;1.10;;
28934;SDS011;16044;52.726;-2.108;2022-07-29T05:45:56;10.35;;;1.55;;
28934;SDS011;16044;52.726;-2.108;2022-07-29T05:48:24;4.50;;;1.50;;
28934;SDS011;16044;52.726;-2.108;2022-07-29T05:50:51;10.63;;;1.95;;
28934;SDS011;16044;52.726;-2.108;2022-07-29T05:53:19;8.38;;;1.80;;
28934;SDS011;16044;52.726;-2.108;2022-07-29T05:55:49;5.88;;;1.30;;
28934;SDS011;16044;52.726;-2.108;2022-07-29T05:58:18;4.70;;;1.75;;
28934;SDS011;16044;52.726;-2.108;2022-07-29T06:00:45;4.85;;;1.60;;
28934;SDS011;16044;52.726;-2.108;2022-07-29T06:03:12;9.15;;;2.08;;
28934;SDS011;16044;52.726;-2.108;2022-07-29T06:05:40;5.40;;;1.65;;
28934;SDS011;16044;52.726;-2.108;2022-07-29T06:08:07;6.90;;;1.70;;
28934;SDS011;16044;52.726;-2.108;2022-07-29T06:10:34;9.60;;;1.88;;
28934;SDS011;16044;52.726;-2.108;2022-07-29T06:13:02;6.93;;;1.90;;
28934;SDS011;16044;52.726;-2.108;2022-07-29T06:15:29;4.55;;;1.65;;
28934;SDS011;16044;52.726;-2.108;2022-07-29T06:17:56;8.13;;;1.80;;
28934;SDS011;16044;52.726;-2.108;2022-07-29T06:20:27;5.45;;;1.52;;
28934;SDS011;16044;52.726;-2.108;2022-07-29T06:22:57;7.72;;;1.88;;
28934;SDS011;16044;52.726;-2.108;2022-07-29T06:25:24;13.52;;;2.42;;
28934;SDS011;16044;52.726;-2.108;2022-07-29T06:27:51;8.80;;;1.80;;
28934;SDS011;16044;52.726;-2.108;2022-07-29T06:30:19;5.53;;;1.73;;
28934;SDS011;16044;52.726;-2.108;2022-07-29T06:32:46;10.73;;;1.80;;
28934;SDS011;16044;52.726;-2.108;2022-07-29T06:35:13;5.85;;;2.00;;
28934;SDS011;16044;52.726;-2.108;2022-07-29T06:38:00;7.80;;;1.75;;
28934;SDS011;16044;52.726;-2.108;2022-07-29T06:40:49;7.32;;;1.60;;
28934;SDS011;16044;52.726;-2.108;2022-07-29T06:43:36;7.97;;;1.75;;
28934;SDS011;16044;52.726;-2.108;2022-07-29T06:46:20;8.23;;;1.83;;
28934;SDS011;16044;52.726;-2.108;2022-07-29T06:48:48;7.13;;;1.70;;
28934;SDS011;16044;52.726;-2.108;2022-07-29T06:51:17;8.13;;;1.70;;
28934;SDS011;16044;52.726;-2.108;2022-07-29T06:53:48;8.57;;;1.67;;
28934;SDS011;16044;52.726;-2.108;2022-07-29T06:56:27;4.50;;;1.48;;
28934;SDS011;16044;52.726;-2.108;2022-07-29T06:59:05;9.50;;;2.03;;
28934;SDS011;16044;52.726;-2.108;2022-07-29T07:01:37;6.60;;;1.73;;
28934;SDS011;16044;52.726;-2.108;2022-07-29T07:04:06;5.72;;;1.58;;
28934;SDS011;16044;52.726;-2.108;2022-07-29T07:06:35;7.63;;;1.77;;
28934;SDS011;16044;52.726;-2.108;2022-07-29T07:09:03;8.88;;;1.40;;
28934;SDS011;16044;52.726;-2.108;2022-07-29T07:11:30;5.20;;;1.70;;
28934;SDS011;16044;52.726;-2.108;2022-07-29T07:13:57;8.20;;;1.88;;
28934;SDS011;16044;52.726;-2.108;2022-07-29T07:16:29;8.20;;;1.88;;
28934;SDS011;16044;52.726;-2.108;2022-07-29T07:18:57;8.82;;;1.70;;
28934;SDS011;16044;52.726;-2.108;2022-07-29T07:21:24;11.27;;;1.85;;
28934;SDS011;16044;52.726;-2.108;2022-07-29T07:23:55;7.75;;;1.50;;
28934;SDS011;16044;52.726;-2.108;2022-07-29T07:26:22;5.13;;;1.35;;
28934;SDS011;16044;52.726;-2.108;2022-07-29T07:28:49;8.88;;;2.28;;
28934;SDS011;16044;52.726;-2.108;2022-07-29T07:31:16;6.38;;;1.85;;
28934;SDS011;16044;52.726;-2.108;2022-07-29T07:33:43;7.85;;;1.70;;
28934;SDS011;16044;52.726;-2.108;2022-07-29T07:36:10;9.45;;;1.88;;
28934;SDS011;16044;52.726;-2.108;2022-07-29T07:38:37;6.15;;;1.65;;
28934;SDS011;16044;52.726;-2.108;2022-07-29T07:41:08;7.47;;;1.90;;
28934;SDS011;16044;52.726;-2.108;2022-07-29T07:43:35;9.48;;;2.03;;
28934;SDS011;16044;52.726;-2.108;2022-07-29T07:46:01;6.57;;;1.67;;
28934;SDS011;16044;52.726;-2.108;2022-07-29T07:48:28;7.53;;;1.80;;
28934;SDS011;16044;52.726;-2.108;2022-07-29T07:50:55;8.43;;;2.05;;
28934;SDS011;16044;52.726;-2.108;2022-07-29T07:53:22;6.93;;;1.90;;
28934;SDS011;16044;52.726;-2.108;2022-07-29T07:55:50;5.18;;;1.50;;
28934;SDS011;16044;52.726;-2.108;2022-07-29T07:58:37;7.57;;;1.95;;
28934;SDS011;16044;52.726;-2.108;2022-07-29T08:01:05;13.55;;;2.17;;
28934;SDS011;16044;52.726;-2.108;2022-07-29T08:03:33;8.15;;;1.88;;
28934;SDS011;16044;52.726;-2.108;2022-07-29T08:06:00;6.00;;;1.85;;
28934;SDS011;16044;52.726;-2.108;2022-07-29T08:08:27;7.75;;;1.77;;
28934;SDS011;16044;52.726;-2.108;2022-07-29T08:10:54;10.05;;;2.10;;
28934;SDS011;16044;52.726;-2.108;2022-07-29T08:13:30;8.13;;;2.00;;
28934;SDS011;16044;52.726;-2.108;2022-07-29T08:15:58;7.20;;;1.88;;
28934;SDS011;16044;52.726;-2.108;2022-07-29T08:18:28;8.40;;;1.75;;
28934;SDS011;16044;52.726;-2.108;2022-07-29T08:20:57;8.63;;;1.98;;
28934;SDS011;16044;52.726;-2.108;2022-07-29T08:23:24;10.27;;;1.85;;
28934;SDS011;16044;52.726;-2.108;2022-07-29T08:26:11;9.00;;;2.58;;
28934;SDS011;16044;52.726;-2.108;2022-07-29T08:28:40;10.18;;;2.10;;
28934;SDS011;16044;52.726;-2.108;2022-07-29T08:31:12;8.70;;;2.13;;
28934;SDS011;16044;52.726;-2.108;2022-07-29T08:33:40;8.45;;;2.05;;
28934;SDS011;16044;52.726;-2.108;2022-07-29T08:36:08;8.93;;;2.20;;
28934;SDS011;16044;52.726;-2.108;2022-07-29T08:38:35;12.30;;;1.90;;
28934;SDS011;16044;52.726;-2.108;2022-07-29T08:41:02;9.65;;;1.85;;
28934;SDS011;16044;52.726;-2.108;2022-07-29T08:43:29;10.10;;;2.35;;
28934;SDS011;16044;52.726;-2.108;2022-07-29T08:45:56;9.07;;;1.88;;
28934;SDS011;16044;52.726;-2.108;2022-07-29T08:48:23;9.48;;;1.88;;
28934;SDS011;16044;52.726;-2.108;2022-07-29T08:50:55;7.22;;;2.03;;
28934;SDS011;16044;52.726;-2.108;2022-07-29T08:53:25;8.02;;;1.73;;
28934;SDS011;16044;52.726;-2.108;2022-07-29T08:55:54;7.55;;;1.95;;
28934;SDS011;16044;52.726;-2.108;2022-07-29T08:58:22;5.93;;;2.10;;
28934;SDS011;16044;52.726;-2.108;2022-07-29T09:00:52;8.57;;;2.10;;
28934;SDS011;16044;52.726;-2.108;2022-07-29T09:03:24;5.88;;;2.08;;
28934;SDS011;16044;52.726;-2.108;2022-07-29T09:05:58;5.97;;;1.90;;
28934;SDS011;16044;52.726;-2.108;2022-07-29T09:08:25;10.82;;;2.28;;
28934;SDS011;16044;52.726;-2.108;2022-07-29T09:10:53;9.27;;;2.17;;
28934;SDS011;16044;52.726;-2.108;2022-07-29T09:13:22;9.15;;;2.22;;
28934;SDS011;16044;52.726;-2.108;2022-07-29T09:15:49;12.48;;;2.38;;
28934;SDS011;16044;52.726;-2.108;2022-07-29T09:21:15;6.93;;;2.10;;
28934;SDS011;16044;52.726;-2.108;2022-07-29T09:24:05;5.93;;;2.30;;
28934;SDS011;16044;52.726;-2.108;2022-07-29T09:26:37;8.60;;;2.80;;
28934;SDS011;16044;52.726;-2.108;2022-07-29T09:29:13;8.32;;;2.40;;
28934;SDS011;16044;52.726;-2.108;2022-07-29T09:31:52;5.80;;;2.13;;
28934;SDS011;16044;52.726;-2.108;2022-07-29T09:34:29;7.80;;;2.47;;
28934;SDS011;16044;52.726;-2.108;2022-07-29T09:36:57;7.65;;;2.25;;
28934;SDS011;16044;52.726;-2.108;2022-07-29T09:39:29;9.45;;;2.40;;
28934;SDS011;16044;52.726;-2.108;2022-07-29T09:42:00;9.32;;;2.25;;
28934;SDS011;16044;52.726;-2.108;2022-07-29T09:44:42;12.30;;;2.90;;
28934;SDS011;16044;52.726;-2.108;2022-07-29T09:47:13;11.00;;;2.90;;
28934;SDS011;16044;52.726;-2.108;2022-07-29T09:52:29;8.70;;;3.17;;
28934;SDS011;16044;52.726;-2.108;2022-07-29T09:55:06;9.73;;;3.00;;
28934;SDS011;16044;52.726;-2.108;2022-07-29T09:57:34;7.32;;;2.75;;
28934;SDS011;16044;52.726;-2.108;2022-07-29T10:00:06;6.35;;;2.20;;
28934;SDS011;16044;52.726;-2.108;2022-07-29T10:02:38;9.63;;;3.17;;
28934;SDS011;16044;52.726;-2.108;2022-07-29T10:05:20;9.65;;;3.10;;
28934;SDS011;16044;52.726;-2.108;2022-07-29T10:07:55;11.13;;;3.45;;
28934;SDS011;16044;52.726;-2.108;2022-07-29T10:10:30;10.70;;;2.83;;
28934;SDS011;16044;52.726;-2.108;2022-07-29T10:13:07;10.88;;;3.35;;
28934;SDS011;16044;52.726;-2.108;2022-07-29T10:15:42;7.72;;;3.00;;
28934;SDS011;16044;52.726;-2.108;2022-07-29T10:18:12;8.65;;;3.30;;
28934;SDS011;16044;52.726;-2.108;2022-07-29T10:20:43;9.23;;;2.97;;
28934;SDS011;16044;52.726;-2.108;2022-07-29T10:23:11;9.88;;;3.17;;
28934;SDS011;16044;52.726;-2.108;2022-07-29T10:25:38;10.65;;;3.10;;
28934;SDS011;16044;52.726;-2.108;2022-07-29T10:28:11;12.02;;;3.05;;
28934;SDS011;16044;52.726;-2.108;2022-07-29T10:30:42;13.13;;;3.38;;
28934;SDS011;16044;52.726;-2.108;2022-07-29T10:36:24;6.85;;;3.00;;
28934;SDS011;16044;52.726;-2.108;2022-07-29T10:39:16;5.82;;;2.20;;
28934;SDS011;16044;52.726;-2.108;2022-07-29T10:44:59;11.10;;;2.78;;
28934;SDS011;16044;52.726;-2.108;2022-07-29T10:47:29;8.48;;;2.53;;
28934;SDS011;16044;52.726;-2.108;2022-07-29T10:50:00;9.70;;;3.28;;
28934;SDS011;16044;52.726;-2.108;2022-07-29T10:52:51;11.82;;;3.22;;
28934;SDS011;16044;52.726;-2.108;2022-07-29T10:58:15;5.57;;;2.45;;
28934;SDS011;16044;52.726;-2.108;2022-07-29T11:00:50;8.23;;;2.55;;
28934;SDS011;16044;52.726;-2.108;2022-07-29T11:06:18;9.35;;;2.65;;
28934;SDS011;16044;52.726;-2.108;2022-07-29T11:12:04;8.63;;;2.83;;
28934;SDS011;16044;52.726;-2.108;2022-07-29T11:15:05;7.93;;;2.25;;
28934;SDS011;16044;52.726;-2.108;2022-07-29T11:20:33;6.82;;;2.20;;
28934;SDS011;16044;52.726;-2.108;2022-07-29T11:31:42;5.95;;;2.15;;
28934;SDS011;16044;52.726;-2.108;2022-07-29T11:37:20;10.63;;;2.60;;
28934;SDS011;16044;52.726;-2.108;2022-07-29T11:47:57;5.63;;;2.28;;
28934;SDS011;16044;52.726;-2.108;2022-07-29T11:50:45;10.77;;;2.80;;
28934;SDS011;16044;52.726;-2.108;2022-07-29T11:53:13;5.55;;;2.80;;
28934;SDS011;16044;52.726;-2.108;2022-07-29T11:56:01;6.53;;;2.47;;
28934;SDS011;16044;52.726;-2.108;2022-07-29T11:58:29;6.60;;;2.50;;
28934;SDS011;16044;52.726;-2.108;2022-07-29T12:00:56;7.05;;;2.50;;
28934;SDS011;16044;52.726;-2.108;2022-07-29T12:03:30;5.85;;;2.60;;
28934;SDS011;16044;52.726;-2.108;2022-07-29T12:06:00;8.68;;;2.60;;
28934;SDS011;16044;52.726;-2.108;2022-07-29T12:08:28;5.72;;;2.25;;
28934;SDS011;16044;52.726;-2.108;2022-07-29T12:10:56;9.65;;;2.60;;
28934;SDS011;16044;52.726;-2.108;2022-07-29T12:13:23;7.10;;;2.10;;
28934;SDS011;16044;52.726;-2.108;2022-07-29T12:16:03;8.43;;;2.50;;
28934;SDS011;16044;52.726;-2.108;2022-07-29T12:18:31;8.98;;;2.45;;
28934;SDS011;16044;52.726;-2.108;2022-07-29T12:20:58;8.27;;;2.38;;
28934;SDS011;16044;52.726;-2.108;2022-07-29T12:23:31;10.15;;;2.50;;
28934;SDS011;16044;52.726;-2.108;2022-07-29T12:26:03;8.73;;;2.88;;
28934;SDS011;16044;52.726;-2.108;2022-07-29T12:28:36;6.65;;;2.20;;
28934;SDS011;16044;52.726;-2.108;2022-07-29T12:31:05;10.43;;;2.70;;
28934;SDS011;16044;52.726;-2.108;2022-07-29T12:33:35;5.50;;;2.20;;
28934;SDS011;16044;52.726;-2.108;2022-07-29T12:36:02;11.30;;;2.80;;
28934;SDS011;16044;52.726;-2.108;2022-07-29T12:38:42;6.45;;;2.25;;
28934;SDS011;16044;52.726;-2.108;2022-07-29T12:41:10;12.95;;;2.63;;
28934;SDS011;16044;52.726;-2.108;2022-07-29T12:43:45;5.60;;;2.20;;
28934;SDS011;16044;52.726;-2.108;2022-07-29T12:46:22;7.32;;;2.03;;
28934;SDS011;16044;52.726;-2.108;2022-07-29T12:48:53;6.22;;;1.95;;
28934;SDS011;16044;52.726;-2.108;2022-07-29T12:51:54;6.90;;;2.15;;
28934;SDS011;16044;52.726;-2.108;2022-07-29T12:54:14;6.93;;;2.03;;
28934;SDS011;16044;52.726;-2.108;2022-07-29T12:56:43;7.38;;;1.95;;
28934;SDS011;16044;52.726;-2.108;2022-07-29T12:59:21;6.47;;;2.17;;
28934;SDS011;16044;52.726;-2.108;2022-07-29T13:01:50;8.85;;;2.05;;
28934;SDS011;16044;52.726;-2.108;2022-07-29T13:04:31;8.48;;;1.95;;
28934;SDS011;16044;52.726;-2.108;2022-07-29T13:07:00;6.63;;;2.15;;
28934;SDS011;16044;52.726;-2.108;2022-07-29T13:09:36;10.25;;;2.40;;
28934;SDS011;16044;52.726;-2.108;2022-07-29T13:12:07;9.88;;;2.20;;
28934;SDS011;16044;52.726;-2.108;2022-07-29T13:14:37;6.45;;;2.25;;
28934;SDS011;16044;52.726;-2.108;2022-07-29T13:17:10;7.40;;;2.33;;
28934;SDS011;16044;52.726;-2.108;2022-07-29T13:19:47;7.50;;;2.13;;
28934;SDS011;16044;52.726;-2.108;2022-07-29T13:22:35;30.13;;;5.20;;
28934;SDS011;16044;52.726;-2.108;2022-07-29T13:25:02;11.38;;;3.17;;
28934;SDS011;16044;52.726;-2.108;2022-07-29T13:27:30;13.25;;;2.70;;
28934;SDS011;16044;52.726;-2.108;2022-07-29T13:30:00;5.82;;;2.30;;
28934;SDS011;16044;52.726;-2.108;2022-07-29T13:32:31;8.20;;;2.38;;
28934;SDS011;16044;52.726;-2.108;2022-07-29T13:35:06;7.20;;;3.10;;
28934;SDS011;16044;52.726;-2.108;2022-07-29T13:37:35;6.13;;;1.98;;
28934;SDS011;16044;52.726;-2.108;2022-07-29T13:40:08;9.15;;;2.17;;
28934;SDS011;16044;52.726;-2.108;2022-07-29T13:42:37;6.88;;;2.20;;
28934;SDS011;16044;52.726;-2.108;2022-07-29T13:45:05;7.85;;;1.85;;
28934;SDS011;16044;52.726;-2.108;2022-07-29T13:47:33;8.07;;;2.40;;
28934;SDS011;16044;52.726;-2.108;2022-07-29T13:50:01;5.00;;;1.92;;
28934;SDS011;16044;52.726;-2.108;2022-07-29T13:52:31;6.47;;;1.77;;
28934;SDS011;16044;52.726;-2.108;2022-07-29T13:54:59;5.47;;;1.85;;
28934;SDS011;16044;52.726;-2.108;2022-07-29T13:57:27;7.28;;;2.20;;
28934;SDS011;16044;52.726;-2.108;2022-07-29T13:59:54;4.70;;;2.30;;
28934;SDS011;16044;52.726;-2.108;2022-07-29T14:02:22;5.30;;;2.00;;
28934;SDS011;16044;52.726;-2.108;2022-07-29T14:04:51;6.18;;;1.75;;
28934;SDS011;16044;52.726;-2.108;2022-07-29T14:07:20;8.27;;;2.53;;
28934;SDS011;16044;52.726;-2.108;2022-07-29T14:09:47;5.55;;;1.90;;
28934;SDS011;16044;52.726;-2.108;2022-07-29T14:12:14;5.00;;;1.92;;
28934;SDS011;16044;52.726;-2.108;2022-07-29T14:14:41;5.55;;;1.90;;
28934;SDS011;16044;52.726;-2.108;2022-07-29T14:17:08;10.93;;;1.83;;
28934;SDS011;16044;52.726;-2.108;2022-07-29T14:19:36;5.45;;;1.83;;
28934;SDS011;16044;52.726;-2.108;2022-07-29T14:22:04;5.47;;;2.00;;
28934;SDS011;16044;52.726;-2.108;2022-07-29T14:24:34;4.63;;;1.77;;
28934;SDS011;16044;52.726;-2.108;2022-07-29T14:27:03;6.18;;;2.08;;
28934;SDS011;16044;52.726;-2.108;2022-07-29T14:29:32;8.93;;;2.30;;
28934;SDS011;16044;52.726;-2.108;2022-07-29T14:32:04;4.18;;;1.95;;
28934;SDS011;16044;52.726;-2.108;2022-07-29T14:34:34;6.45;;;2.15;;
28934;SDS011;16044;52.726;-2.108;2022-07-29T14:37:02;6.25;;;2.05;;
28934;SDS011;16044;52.726;-2.108;2022-07-29T14:39:32;6.45;;;2.10;;
28934;SDS011;16044;52.726;-2.108;2022-07-29T14:42:08;11.65;;;2.00;;
28934;SDS011;16044;52.726;-2.108;2022-07-29T14:44:38;6.35;;;1.85;;
28934;SDS011;16044;52.726;-2.108;2022-07-29T14:47:08;5.85;;;1.70;;
28934;SDS011;16044;52.726;-2.108;2022-07-29T14:49:35;6.70;;;2.10;;
28934;SDS011;16044;52.726;-2.108;2022-07-29T14:52:03;7.50;;;2.00;;
28934;SDS011;16044;52.726;-2.108;2022-07-29T14:54:30;5.60;;;1.92;;
28934;SDS011;16044;52.726;-2.108;2022-07-29T14:56:57;4.07;;;1.80;;
28934;SDS011;16044;52.726;-2.108;2022-07-29T14:59:24;5.97;;;2.22;;
28934;SDS011;16044;52.726;-2.108;2022-07-29T15:01:52;4.85;;;2.00;;
28934;SDS011;16044;52.726;-2.108;2022-07-29T15:04:23;8.73;;;2.10;;
28934;SDS011;16044;52.726;-2.108;2022-07-29T15:06:50;4.35;;;1.70;;
28934;SDS011;16044;52.726;-2.108;2022-07-29T15:09:18;5.47;;;1.80;;
28934;SDS011;16044;52.726;-2.108;2022-07-29T15:11:45;5.20;;;2.00;;
28934;SDS011;16044;52.726;-2.108;2022-07-29T15:14:12;7.88;;;2.20;;
28934;SDS011;16044;52.726;-2.108;2022-07-29T15:16:39;5.15;;;1.73;;
28934;SDS011;16044;52.726;-2.108;2022-07-29T15:19:11;6.22;;;2.03;;
28934;SDS011;16044;52.726;-2.108;2022-07-29T15:21:41;5.97;;;2.10;;
28934;SDS011;16044;52.726;-2.108;2022-07-29T15:24:15;5.55;;;2.10;;
28934;SDS011;16044;52.726;-2.108;2022-07-29T15:26:43;8.60;;;1.85;;
28934;SDS011;16044;52.726;-2.108;2022-07-29T15:29:10;5.00;;;1.80;;
28934;SDS011;16044;52.726;-2.108;2022-07-29T15:31:38;6.82;;;2.00;;
28934;SDS011;16044;52.726;-2.108;2022-07-29T15:34:06;4.43;;;2.03;;
28934;SDS011;16044;52.726;-2.108;2022-07-29T15:36:33;6.25;;;1.60;;
28934;SDS011;16044;52.726;-2.108;2022-07-29T15:39:17;5.03;;;1.90;;
28934;SDS011;16044;52.726;-2.108;2022-07-29T15:41:45;7.85;;;2.08;;
28934;SDS011;16044;52.726;-2.108;2022-07-29T15:44:12;7.50;;;1.70;;
28934;SDS011;16044;52.726;-2.108;2022-07-29T15:46:39;10.50;;;2.08;;
28934;SDS011;16044;52.726;-2.108;2022-07-29T15:49:26;6.53;;;2.00;;
28934;SDS011;16044;52.726;-2.108;2022-07-29T15:52:14;7.57;;;2.03;;
28934;SDS011;16044;52.726;-2.108;2022-07-29T15:54:51;5.53;;;1.90;;